Louisville, Alabama
Current Conditions -  °F | °C
As of 10:53 PM on Tuesday 25 Nov 2014 (Local Time) from KTOI Reporting Station
Overcast Overcast  
Wind Chill: 51°   Ceiling: 11000
Heat Index: 51°   Visibility: 10mi
Dew Point: 36°   Wind: 7mph
Humidity: 56%   Direction: 300°WNW
Pressure: 30.08"   Gusts: NA
Location:  31.78°N, 85.56°W
Report Text: KTOI 260453Z AUTO 30006KT 10SM OVC110 11/02 A3008 RMK AO2 SLP184 T01060022
Loading
Personal Weather Stations






























Interactive Weather Map New forecast layout! Learn more

10-Day Weather Forecast

Advertisements
Track Severe Weather on mobile